createdAt,value
2016-05-19T00:00:24.291Z,982.2
2016-05-19T00:01:24.293Z,982.17
2016-05-19T00:02:24.296Z,982.18
2016-05-19T00:03:24.284Z,982.18
2016-05-19T00:04:24.286Z,982.24
2016-05-19T00:05:43.492Z,982.24
2016-05-19T00:06:24.291Z,982.25
2016-05-19T00:07:24.294Z,982.26
2016-05-19T00:08:24.297Z,982.22
2016-05-19T00:09:24.300Z,982.18
2016-05-19T00:10:24.287Z,982.2
2016-05-19T00:11:24.289Z,982.17
2016-05-19T00:12:24.308Z,982.19
2016-05-19T00:13:24.295Z,982.18
2016-05-19T00:14:24.298Z,982.15
2016-05-19T00:15:43.503Z,982.16
2016-05-19T00:16:24.303Z,982.14
2016-05-19T00:17:24.306Z,982.16
2016-05-19T00:18:24.308Z,982.18
2016-05-19T00:19:24.311Z,982.15
2016-05-19T00:20:24.298Z,982.11
2016-05-19T00:21:24.301Z,982.12
2016-05-19T00:22:24.304Z,982.11
2016-05-19T00:23:37.352Z,982.11
2016-05-19T00:24:24.310Z,982.08
2016-05-19T00:25:24.312Z,982.06
2016-05-19T00:26:24.314Z,982.06
2016-05-19T00:27:24.301Z,982.1
2016-05-19T00:28:24.304Z,982.08
2016-05-19T00:29:24.323Z,982.07
2016-05-19T00:30:37.059Z,982.08
2016-05-19T00:31:24.312Z,982.05
2016-05-19T00:32:24.314Z,982.11
2016-05-19T00:33:24.317Z,982.11
2016-05-19T00:34:24.320Z,982.12
2016-05-19T00:35:24.323Z,982.14
2016-05-19T00:36:24.326Z,982.1
2016-05-19T00:37:24.328Z,982.09
2016-05-19T00:38:24.331Z,982.07
2016-05-19T00:39:24.334Z,982.02
2016-05-19T00:40:24.336Z,981.99
2016-05-19T00:41:24.323Z,982.02
2016-05-19T00:42:24.326Z,982
2016-05-19T00:43:24.328Z,981.97
2016-05-19T00:44:24.331Z,981.99
2016-05-19T00:45:24.319Z,982.01
2016-05-19T00:46:43.524Z,982.01
2016-05-19T00:47:24.339Z,981.97
2016-05-19T00:48:24.342Z,981.99
2016-05-19T00:49:24.329Z,981.96
2016-05-19T00:50:24.332Z,981.96
2016-05-19T00:51:24.335Z,982
2016-05-19T00:52:24.337Z,982
2016-05-19T00:53:24.340Z,981.99
2016-05-19T00:54:24.343Z,981.97
2016-05-19T00:55:24.330Z,981.98
2016-05-19T00:56:24.333Z,982
2016-05-19T00:57:24.335Z,982.02
2016-05-19T00:58:24.337Z,982
2016-05-19T00:59:24.325Z,982.02
2016-05-19T01:00:24.327Z,982
2016-05-19T01:01:24.329Z,982.05
2016-05-19T01:02:24.348Z,982.01
2016-05-19T01:03:24.335Z,982
2016-05-19T01:04:24.338Z,981.98
2016-05-19T01:05:24.341Z,982
2016-05-19T01:06:37.062Z,982.02
2016-05-19T01:07:24.331Z,981.97
2016-05-19T01:08:24.334Z,981.95
2016-05-19T01:09:24.336Z,981.96
2016-05-19T01:10:24.323Z,981.96
2016-05-19T01:11:24.341Z,981.98
2016-05-19T01:12:24.328Z,981.96
2016-05-19T01:13:24.331Z,981.95
2016-05-19T01:14:24.334Z,981.92
2016-05-19T01:15:24.336Z,981.93
2016-05-19T01:16:24.339Z,981.93
2016-05-19T01:17:43.545Z,981.84
2016-05-19T01:18:24.330Z,981.89
2016-05-19T01:19:24.332Z,981.86
2016-05-19T01:20:24.334Z,981.86
2016-05-19T01:21:24.338Z,981.86
2016-05-19T01:22:24.341Z,981.9
2016-05-19T01:23:24.343Z,981.93
2016-05-19T01:24:24.345Z,981.93
2016-05-19T01:25:24.332Z,981.92
2016-05-19T01:26:24.335Z,981.88
2016-05-19T01:27:24.338Z,981.89
2016-05-19T01:28:43.543Z,981.86
2016-05-19T01:29:37.077Z,981.84
2016-05-19T01:30:24.346Z,981.83
2016-05-19T01:31:50.020Z,981.86
2016-05-19T01:32:24.351Z,981.88
2016-05-19T01:33:24.338Z,981.88
2016-05-19T01:34:24.340Z,981.91
2016-05-19T01:35:24.343Z,981.93
2016-05-19T01:36:24.346Z,981.87
2016-05-19T01:37:24.348Z,981.96
2016-05-19T01:38:24.774Z,981.9
2016-05-19T01:39:24.353Z,981.92
2016-05-19T01:40:37.091Z,981.96
2016-05-19T01:41:24.359Z,981.95
2016-05-19T01:42:24.347Z,981.87
2016-05-19T01:43:24.350Z,981.85
2016-05-19T01:44:24.353Z,981.83
2016-05-19T01:45:24.355Z,981.87
2016-05-19T01:46:24.358Z,981.85
2016-05-19T01:47:24.360Z,981.89
2016-05-19T01:48:24.363Z,981.86
2016-05-19T01:49:24.350Z,981.84
2016-05-19T01:50:43.556Z,981.8
2016-05-19T01:51:24.355Z,981.84
2016-05-19T01:52:24.358Z,981.81
2016-05-19T01:53:24.361Z,981.79
2016-05-19T01:54:24.363Z,981.82
2016-05-19T01:55:24.350Z,981.79
2016-05-19T01:56:24.353Z,981.87
2016-05-19T01:57:24.355Z,981.87
2016-05-19T01:58:24.358Z,981.86
2016-05-19T01:59:24.346Z,981.87
2016-05-19T02:00:24.363Z,981.92
2016-05-19T02:01:37.085Z,981.96
2016-05-19T02:02:24.353Z,981.95
2016-05-19T02:03:24.371Z,981.94
2016-05-19T02:04:24.344Z,981.92
2016-05-19T02:05:24.346Z,981.96
2016-05-19T02:06:24.426Z,981.96
2016-05-19T02:07:24.351Z,981.92
2016-05-19T02:08:24.370Z,981.95
2016-05-19T02:09:24.357Z,981.94
2016-05-19T02:10:24.360Z,981.93
2016-05-19T02:11:24.362Z,981.89
2016-05-19T02:12:24.365Z,981.87
2016-05-19T02:13:24.353Z,981.84
2016-05-19T02:14:24.370Z,981.86
2016-05-19T02:15:24.358Z,981.84
2016-05-19T02:16:24.360Z,981.84
2016-05-19T02:17:24.363Z,981.88
2016-05-19T02:18:43.584Z,981.87
2016-05-19T02:19:24.352Z,981.91
2016-05-19T02:20:24.371Z,981.91
2016-05-19T02:21:43.561Z,981.94
2016-05-19T02:22:24.360Z,981.93
2016-05-19T02:23:24.644Z,981.92
2016-05-19T02:24:24.374Z,981.94
2016-05-19T02:25:24.361Z,981.92
2016-05-19T02:26:24.379Z,981.94
2016-05-19T02:27:24.366Z,981.94
2016-05-19T02:28:24.369Z,981.93
2016-05-19T02:29:24.372Z,981.96
2016-05-19T02:30:24.374Z,981.95
2016-05-19T02:31:43.565Z,981.96
2016-05-19T02:32:24.363Z,981.98
2016-05-19T02:33:24.366Z,982
2016-05-19T02:34:24.369Z,982.01
2016-05-19T02:35:24.372Z,981.95
2016-05-19T02:36:24.374Z,981.98
2016-05-19T02:37:24.377Z,982.02
2016-05-19T02:38:37.099Z,981.98
2016-05-19T02:39:24.367Z,982.05
2016-05-19T02:40:24.413Z,982.1
2016-05-19T02:41:24.444Z,982.1
2016-05-19T02:42:24.490Z,982.18
2016-05-19T02:43:24.537Z,982.16
2016-05-19T02:44:24.583Z,982.23
2016-05-19T02:45:24.610Z,982.27
2016-05-19T02:46:24.613Z,982.22
2016-05-19T02:47:24.630Z,982.23
2016-05-19T02:48:24.649Z,982.24
2016-05-19T02:49:24.667Z,982.26
2016-05-19T02:50:24.678Z,982.3
2016-05-19T02:51:37.422Z,982.29
2016-05-19T02:52:24.696Z,982.28
2016-05-19T02:53:24.719Z,982.24
2016-05-19T02:54:24.697Z,982.28
2016-05-19T02:55:24.703Z,982.24
2016-05-19T02:56:24.708Z,982.27
2016-05-19T02:57:24.712Z,982.25
2016-05-19T02:58:24.717Z,982.19
2016-05-19T02:59:24.737Z,982.2
2016-05-19T03:00:24.710Z,982.15
2016-05-19T03:01:24.713Z,982.13
2016-05-19T03:02:43.935Z,982.16
2016-05-19T03:03:24.720Z,982.12
2016-05-19T03:04:24.723Z,982.11
2016-05-19T03:05:24.727Z,982.14
2016-05-19T03:06:24.714Z,982.04
2016-05-19T03:07:24.732Z,982.07
2016-05-19T03:08:24.720Z,982.05
2016-05-19T03:09:24.722Z,982.06
2016-05-19T03:10:24.725Z,982.04
2016-05-19T03:11:24.728Z,982.03
2016-05-19T03:12:24.731Z,982.02
2016-05-19T03:13:43.922Z,982.07
2016-05-19T03:14:24.722Z,982.05
2016-05-19T03:15:24.724Z,982.09
2016-05-19T03:16:24.727Z,982.08
2016-05-19T03:17:24.730Z,982.05
2016-05-19T03:18:24.716Z,982.05
2016-05-19T03:19:24.719Z,982.06
2016-05-19T03:20:24.722Z,982.02
2016-05-19T03:21:24.740Z,982.05
2016-05-19T03:22:24.727Z,982.02
2016-05-19T03:23:24.729Z,982
2016-05-19T03:24:24.732Z,982.02
2016-05-19T03:25:24.735Z,982
2016-05-19T03:26:24.721Z,982.05
2016-05-19T03:27:24.724Z,982.01
2016-05-19T03:28:24.727Z,982
2016-05-19T03:29:24.746Z,981.93
2016-05-19T03:30:24.732Z,981.92
2016-05-19T03:31:24.735Z,981.93
2016-05-19T03:32:24.723Z,981.93
2016-05-19T03:33:24.726Z,981.89
2016-05-19T03:34:24.744Z,981.89
2016-05-19T03:35:24.746Z,981.91
2016-05-19T03:36:24.749Z,981.93
2016-05-19T03:37:24.736Z,981.93
2016-05-19T03:38:24.722Z,981.93
2016-05-19T03:39:24.742Z,981.95
2016-05-19T03:40:24.744Z,981.95
2016-05-19T03:41:24.731Z,981.95
2016-05-19T03:42:24.733Z,982.04
2016-05-19T03:43:24.736Z,982.07
2016-05-19T03:44:24.739Z,982.05
2016-05-19T03:45:24.741Z,982.06
2016-05-19T03:46:24.729Z,982.08
2016-05-19T03:47:24.747Z,982.09
2016-05-19T03:48:43.938Z,982.09
2016-05-19T03:49:24.738Z,982.09
2016-05-19T03:50:24.740Z,982.1
2016-05-19T03:51:24.743Z,982.15
2016-05-19T03:52:24.746Z,982.13
2016-05-19T03:53:24.733Z,982.13
2016-05-19T03:54:24.751Z,982.15
2016-05-19T03:55:31.004Z,982.14
2016-05-19T03:56:24.740Z,982.17
2016-05-19T03:57:24.743Z,982.23
2016-05-19T03:58:24.746Z,982.19
2016-05-19T03:59:24.748Z,982.24
2016-05-19T04:00:24.735Z,982.22
2016-05-19T04:01:24.737Z,982.21
2016-05-19T04:02:24.740Z,982.22
2016-05-19T04:03:24.743Z,982.24
2016-05-19T04:04:24.731Z,982.23
2016-05-19T04:05:43.936Z,982.29
2016-05-19T04:06:24.751Z,982.27
2016-05-19T04:07:24.739Z,982.36
2016-05-19T04:08:24.742Z,982.33
2016-05-19T04:09:24.745Z,982.34
2016-05-19T04:10:24.747Z,982.37
2016-05-19T04:11:37.484Z,982.35
2016-05-19T04:12:24.753Z,982.35
2016-05-19T04:13:24.739Z,982.36
2016-05-19T04:14:24.739Z,982.38
2016-05-19T04:15:24.741Z,982.37
2016-05-19T04:16:24.744Z,982.43
2016-05-19T04:17:24.731Z,982.45
2016-05-19T04:18:24.734Z,982.49
2016-05-19T04:19:24.736Z,982.49
2016-05-19T04:20:24.739Z,982.52
2016-05-19T04:21:24.741Z,982.54
2016-05-19T04:22:24.744Z,982.56
2016-05-19T04:23:24.747Z,982.5
2016-05-19T04:24:24.750Z,982.54
2016-05-19T04:25:24.738Z,982.65
2016-05-19T04:26:24.740Z,982.69
2016-05-19T04:27:24.743Z,982.71
2016-05-19T04:28:24.746Z,982.7
2016-05-19T04:29:24.749Z,982.75
2016-05-19T04:30:24.735Z,982.75
2016-05-19T04:31:24.738Z,982.76
2016-05-19T04:32:37.478Z,982.8
2016-05-19T04:33:24.743Z,982.82
2016-05-19T04:34:24.746Z,982.84
2016-05-19T04:35:24.764Z,982.88
2016-05-19T04:36:24.751Z,982.89
2016-05-19T04:37:24.739Z,982.93
2016-05-19T04:38:24.756Z,982.93
2016-05-19T04:39:24.745Z,982.91
2016-05-19T04:40:24.747Z,982.95
2016-05-19T04:41:24.749Z,982.94
2016-05-19T04:42:24.753Z,982.97
2016-05-19T04:43:24.755Z,982.91
2016-05-19T04:44:24.742Z,982.99
2016-05-19T04:45:37.497Z,982.92
2016-05-19T04:46:24.747Z,982.95
2016-05-19T04:47:24.749Z,982.96
2016-05-19T04:48:24.753Z,982.95
2016-05-19T04:49:24.755Z,983.01
2016-05-19T04:50:24.758Z,983.01
2016-05-19T04:51:37.497Z,983.03
2016-05-19T04:52:24.763Z,983.01
2016-05-19T04:53:50.440Z,983.09
2016-05-19T04:54:24.768Z,983.11
2016-05-19T04:55:24.756Z,983.1
2016-05-19T04:56:24.758Z,983.16
2016-05-19T04:57:24.776Z,983.18
2016-05-19T04:58:24.764Z,983.21
2016-05-19T04:59:24.766Z,983.22
2016-05-19T05:00:24.754Z,983.25
2016-05-19T05:01:24.757Z,983.32
2016-05-19T05:02:24.759Z,983.32
2016-05-19T05:03:24.762Z,983.33
2016-05-19T05:04:37.501Z,983.35
2016-05-19T05:05:24.751Z,983.35
2016-05-19T05:06:24.770Z,983.35
2016-05-19T05:07:24.757Z,983.29
2016-05-19T05:08:24.775Z,983.32
2016-05-19T05:09:24.762Z,983.37
2016-05-19T05:10:24.765Z,983.34
2016-05-19T05:11:24.751Z,983.38
2016-05-19T05:12:24.770Z,983.38
2016-05-19T05:13:24.773Z,983.39
2016-05-19T05:14:24.760Z,983.4
2016-05-19T05:15:24.762Z,983.47
2016-05-19T05:16:37.503Z,983.45
2016-05-19T05:17:24.784Z,983.48
2016-05-19T05:18:24.770Z,983.45
2016-05-19T05:19:24.758Z,983.47
2016-05-19T05:20:37.513Z,983.48
2016-05-19T05:21:24.763Z,983.46
2016-05-19T05:22:24.766Z,983.52
2016-05-19T05:23:24.768Z,983.51
2016-05-19T05:24:24.771Z,983.58
2016-05-19T05:25:24.775Z,983.55
2016-05-19T05:26:24.777Z,983.55
2016-05-19T05:27:24.779Z,983.59
2016-05-19T05:28:24.782Z,983.53
2016-05-19T05:29:24.785Z,983.6
2016-05-19T05:30:24.772Z,983.62
2016-05-19T05:31:24.774Z,983.61
2016-05-19T05:32:24.793Z,983.64
2016-05-19T05:33:37.517Z,983.61
2016-05-19T05:34:24.782Z,983.69
2016-05-19T05:35:24.801Z,983.68
2016-05-19T05:36:24.773Z,983.68
2016-05-19T05:37:24.775Z,983.69
2016-05-19T05:38:24.778Z,983.68
2016-05-19T05:39:24.781Z,983.69
2016-05-19T05:40:24.784Z,983.71
2016-05-19T05:41:24.786Z,983.72
2016-05-19T05:42:37.526Z,983.7
2016-05-19T05:43:24.807Z,983.73
2016-05-19T05:44:24.795Z,983.72
2016-05-19T05:45:24.797Z,983.75
2016-05-19T05:46:24.800Z,983.76
2016-05-19T05:47:24.786Z,983.77
2016-05-19T05:48:24.789Z,983.76
2016-05-19T05:49:24.791Z,983.85
2016-05-19T05:50:24.795Z,983.82
2016-05-19T05:51:24.797Z,983.82
2016-05-19T05:52:37.537Z,983.84
2016-05-19T05:53:24.787Z,983.92
2016-05-19T05:54:24.789Z,983.97
2016-05-19T05:55:24.792Z,983.94
2016-05-19T05:56:24.811Z,983.93
2016-05-19T05:57:24.797Z,984
2016-05-19T05:58:24.800Z,984.01
2016-05-19T05:59:24.787Z,984.03
2016-05-19T06:00:24.790Z,984
2016-05-19T06:01:37.530Z,984.08
2016-05-19T06:02:24.811Z,984.05
2016-05-19T06:03:24.799Z,984.11
2016-05-19T06:04:24.816Z,984.08
2016-05-19T06:05:24.804Z,984.1
2016-05-19T06:06:24.807Z,984.16
2016-05-19T06:07:24.809Z,984.1
2016-05-19T06:08:24.859Z,984.11
2016-05-19T06:09:24.814Z,984.16
2016-05-19T06:10:24.817Z,984.18
2016-05-19T06:11:24.804Z,984.15
2016-05-19T06:12:24.822Z,984.21
2016-05-19T06:13:24.809Z,984.17
2016-05-19T06:14:24.812Z,984.22
2016-05-19T06:15:24.815Z,984.21
2016-05-19T06:16:24.818Z,984.25
2016-05-19T06:17:24.836Z,984.3
2016-05-19T06:18:24.823Z,984.31
2016-05-19T06:19:24.809Z,984.28
2016-05-19T06:20:37.564Z,984.29
2016-05-19T06:21:24.814Z,984.32
2016-05-19T06:22:28.522Z,984.32
2016-05-19T06:23:24.836Z,984.33
2016-05-19T06:24:24.823Z,984.31
2016-05-19T06:25:24.826Z,984.34
2016-05-19T06:26:24.829Z,984.36
2016-05-19T06:27:24.831Z,984.35
2016-05-19T06:28:37.571Z,984.38
2016-05-19T06:29:24.836Z,984.37
2016-05-19T06:30:24.824Z,984.37
2016-05-19T06:31:24.826Z,984.39
2016-05-19T06:32:24.830Z,984.41
2016-05-19T06:33:24.832Z,984.42
2016-05-19T06:34:24.835Z,984.45
2016-05-19T06:35:24.838Z,984.47
2016-05-19T06:36:24.855Z,984.47
2016-05-19T06:37:44.048Z,984.48
2016-05-19T06:38:24.845Z,984.51
2016-05-19T06:39:24.832Z,984.52
2016-05-19T06:40:24.835Z,984.53
2016-05-19T06:41:24.838Z,984.51
2016-05-19T06:42:24.840Z,984.57
2016-05-19T06:43:24.843Z,984.57
2016-05-19T06:44:24.846Z,984.59
2016-05-19T06:45:24.849Z,984.62
2016-05-19T06:46:24.851Z,984.58
2016-05-19T06:47:24.839Z,984.59
2016-05-19T06:48:24.857Z,984.63
2016-05-19T06:49:24.844Z,984.68
2016-05-19T06:50:24.846Z,984.69
2016-05-19T06:51:31.114Z,984.7
2016-05-19T06:52:24.867Z,984.7
2016-05-19T06:53:24.855Z,984.71
2016-05-19T06:54:24.858Z,984.73
2016-05-19T06:55:24.844Z,984.76
2016-05-19T06:56:37.600Z,984.78
2016-05-19T06:57:24.866Z,984.77
2016-05-19T06:58:24.853Z,984.78
2016-05-19T06:59:24.854Z,984.75
2016-05-19T07:00:24.858Z,984.79
2016-05-19T07:01:24.860Z,984.85
2016-05-19T07:02:24.863Z,984.84
2016-05-19T07:03:24.865Z,984.86
2016-05-19T07:04:44.074Z,984.92
2016-05-19T07:05:28.058Z,984.9
2016-05-19T07:06:28.046Z,984.91
2016-05-19T07:07:28.048Z,984.93
2016-05-19T07:08:28.051Z,984.95
2016-05-19T07:09:28.054Z,984.97
2016-05-19T07:10:28.056Z,984.98
2016-05-19T07:11:40.796Z,984.96
2016-05-19T07:12:28.062Z,984.91
2016-05-19T07:13:28.064Z,984.98
2016-05-19T07:14:28.067Z,984.98
2016-05-19T07:15:28.070Z,984.98
2016-05-19T07:16:28.056Z,984.98
2016-05-19T07:17:28.075Z,984.99
2016-05-19T07:18:28.078Z,985.03
2016-05-19T07:19:40.802Z,985.02
2016-05-19T07:20:28.083Z,985.01
2016-05-19T07:21:28.070Z,985.02
2016-05-19T07:22:28.073Z,985.03
2016-05-19T07:23:28.216Z,985.05
2016-05-19T07:24:28.078Z,985.11
2016-05-19T07:25:28.097Z,985.08
2016-05-19T07:26:40.821Z,985.14
2016-05-19T07:27:28.086Z,985.13
2016-05-19T07:28:28.074Z,985.11
2016-05-19T07:29:28.092Z,985.17
2016-05-19T07:30:28.111Z,985.16
2016-05-19T07:31:28.082Z,985.16
2016-05-19T07:32:28.085Z,985.2
2016-05-19T07:33:28.087Z,985.24
2016-05-19T07:34:28.090Z,985.27
2016-05-19T07:35:28.093Z,985.28
2016-05-19T07:36:40.832Z,985.26
2016-05-19T07:37:28.098Z,985.24
2016-05-19T07:38:28.101Z,985.25
2016-05-19T07:39:28.103Z,985.28
2016-05-19T07:40:28.090Z,985.3
2016-05-19T07:41:28.093Z,985.33
2016-05-19T07:42:40.832Z,985.37
2016-05-19T07:43:28.098Z,985.39
2016-05-19T07:44:28.101Z,985.41
2016-05-19T07:45:28.103Z,985.45
2016-05-19T07:46:28.107Z,985.48
2016-05-19T07:47:28.109Z,985.42
2016-05-19T07:48:28.111Z,985.47
2016-05-19T07:49:28.115Z,985.45
2016-05-19T07:50:28.118Z,985.47
2016-05-19T07:51:28.120Z,985.45
2016-05-19T07:52:28.123Z,985.45
2016-05-19T07:53:28.125Z,985.49
2016-05-19T07:54:40.864Z,985.47
2016-05-19T07:55:28.130Z,985.49
2016-05-19T07:56:28.117Z,985.46
2016-05-19T07:57:28.136Z,985.48
2016-05-19T07:58:28.139Z,985.46
2016-05-19T07:59:28.141Z,985.5
2016-05-19T08:00:28.144Z,985.48
2016-05-19T08:01:28.147Z,985.5
2016-05-19T08:02:28.149Z,985.47
2016-05-19T08:03:28.136Z,985.52
2016-05-19T08:04:28.138Z,985.54
2016-05-19T08:05:28.141Z,985.57
2016-05-19T08:06:40.882Z,985.56
2016-05-19T08:07:28.147Z,985.55
2016-05-19T08:08:28.166Z,985.57
2016-05-19T08:09:28.153Z,985.57
2016-05-19T08:10:28.155Z,985.59
2016-05-19T08:11:28.158Z,985.58
2016-05-19T08:12:28.160Z,985.63
2016-05-19T08:13:28.163Z,985.62
2016-05-19T08:14:28.166Z,985.68
2016-05-19T08:15:40.906Z,985.7
2016-05-19T08:16:28.156Z,985.73
2016-05-19T08:17:28.159Z,985.66
2016-05-19T08:18:28.162Z,985.67
2016-05-19T08:19:28.164Z,985.66
2016-05-19T08:20:28.167Z,985.66
2016-05-19T08:21:28.169Z,985.77
2016-05-19T08:22:28.172Z,985.75
2016-05-19T08:23:28.175Z,985.79
2016-05-19T08:24:28.177Z,985.78
2016-05-19T08:25:28.180Z,985.81
2016-05-19T08:26:28.182Z,985.83
2016-05-19T08:27:28.185Z,985.82
2016-05-19T08:28:28.188Z,985.79
2016-05-19T08:29:40.928Z,985.8
2016-05-19T08:30:28.194Z,985.84
2016-05-19T08:31:28.196Z,985.79
2016-05-19T08:32:28.183Z,985.84
2016-05-19T08:33:28.202Z,985.84
2016-05-19T08:34:28.188Z,985.85
2016-05-19T08:35:28.208Z,985.88
2016-05-19T08:36:28.210Z,985.88
2016-05-19T08:37:28.213Z,985.84
2016-05-19T08:38:28.215Z,985.86
2016-05-19T08:39:28.218Z,985.9
2016-05-19T08:40:40.957Z,985.92
2016-05-19T08:41:28.223Z,985.89
2016-05-19T08:42:28.210Z,985.92
2016-05-19T08:43:28.213Z,985.94
2016-05-19T08:44:28.216Z,985.96
2016-05-19T08:45:28.218Z,985.97
2016-05-19T08:46:28.221Z,985.99
2016-05-19T08:47:28.239Z,986.01
2016-05-19T08:48:28.242Z,986.03
2016-05-19T08:49:28.244Z,986.05
2016-05-19T08:50:28.247Z,985.99
2016-05-19T08:51:28.250Z,985.97
2016-05-19T08:52:28.237Z,986.02
2016-05-19T08:53:28.239Z,986.02
2016-05-19T08:54:28.258Z,986.05
2016-05-19T08:55:28.261Z,986.09
2016-05-19T08:56:28.264Z,986.12
2016-05-19T08:57:28.266Z,986.1
2016-05-19T08:58:28.269Z,986.05
2016-05-19T08:59:28.271Z,986.07
2016-05-19T09:00:28.274Z,986.08
2016-05-19T09:01:28.277Z,986.11
2016-05-19T09:02:28.280Z,986.03
2016-05-19T09:03:28.283Z,986.14
2016-05-19T09:04:28.285Z,986.17
2016-05-19T09:05:28.288Z,986.15
2016-05-19T09:06:28.306Z,986.18
2016-05-19T09:07:28.293Z,986.13
2016-05-19T09:08:28.295Z,986.13
2016-05-19T09:09:28.298Z,986.2
2016-05-19T09:10:28.301Z,986.2
2016-05-19T09:11:28.304Z,986.21
2016-05-19T09:12:28.306Z,986.21
2016-05-19T09:13:28.310Z,986.2
2016-05-19T09:14:28.312Z,986.14
2016-05-19T09:15:41.052Z,986.16
2016-05-19T09:16:28.318Z,986.18
2016-05-19T09:17:28.320Z,986.13
2016-05-19T09:18:28.323Z,986.16
2016-05-19T09:19:28.325Z,986.07
2016-05-19T09:20:28.329Z,986.12
2016-05-19T09:21:28.331Z,986.14
2016-05-19T09:22:28.348Z,986.2
2016-05-19T09:23:28.414Z,986.13
2016-05-19T09:24:28.386Z,986.17
2016-05-19T09:25:28.373Z,986.21
2016-05-19T09:26:28.344Z,986.22
2016-05-19T09:27:28.347Z,986.28
2016-05-19T09:28:28.349Z,986.3
2016-05-19T09:29:28.352Z,986.33
2016-05-19T09:30:28.355Z,986.33
2016-05-19T09:31:28.358Z,986.35
2016-05-19T09:32:28.376Z,986.36
2016-05-19T09:33:28.363Z,986.32
2016-05-19T09:34:28.366Z,986.26
2016-05-19T09:35:28.383Z,986.32
2016-05-19T09:36:28.386Z,986.31
2016-05-19T09:37:28.388Z,986.33
2016-05-19T09:38:28.392Z,986.36
2016-05-19T09:39:28.395Z,986.39
2016-05-19T09:40:28.397Z,986.32
2016-05-19T09:41:28.400Z,986.32
2016-05-19T09:42:28.402Z,986.33
2016-05-19T09:43:28.405Z,986.31
2016-05-19T09:44:28.408Z,986.33
2016-05-19T09:45:28.426Z,986.34
2016-05-19T09:46:41.151Z,986.38
2016-05-19T09:47:28.416Z,986.33
2016-05-19T09:48:28.419Z,986.39
2016-05-19T09:49:28.421Z,986.39
2016-05-19T09:50:28.424Z,986.33
2016-05-19T09:51:28.443Z,986.37
2016-05-19T09:52:28.429Z,986.36
2016-05-19T09:53:28.448Z,986.36
2016-05-19T09:54:28.435Z,986.43
2016-05-19T09:55:28.437Z,986.37
2016-05-19T09:56:28.456Z,986.4
2016-05-19T09:57:28.459Z,986.43
2016-05-19T09:58:28.461Z,986.42
2016-05-19T09:59:28.464Z,986.49
2016-05-19T10:00:28.467Z,986.46
2016-05-19T10:01:28.469Z,986.45
2016-05-19T10:02:28.472Z,986.48
2016-05-19T10:03:28.475Z,986.51
2016-05-19T10:04:41.212Z,986.49
2016-05-19T10:05:28.480Z,986.5
2016-05-19T10:06:28.483Z,986.47
2016-05-19T10:07:28.486Z,986.51
2016-05-19T10:08:28.692Z,986.55
2016-05-19T10:09:28.491Z,986.55
2016-05-19T10:10:34.775Z,986.52
2016-05-19T10:11:28.496Z,986.54
2016-05-19T10:12:28.499Z,986.53
2016-05-19T10:13:28.502Z,986.57
2016-05-19T10:14:28.505Z,986.61
2016-05-19T10:15:28.507Z,986.7
2016-05-19T10:16:28.510Z,986.65
2016-05-19T10:17:41.247Z,986.63
2016-05-19T10:18:28.515Z,986.66
2016-05-19T10:19:28.518Z,986.7
2016-05-19T10:20:28.521Z,986.76
2016-05-19T10:21:28.524Z,986.79
2016-05-19T10:22:28.542Z,986.84
2016-05-19T10:23:28.529Z,986.83
2016-05-19T10:24:28.531Z,986.81
2016-05-19T10:25:28.550Z,986.85
2016-05-19T10:26:28.537Z,986.91
2016-05-19T10:27:28.556Z,986.94
2016-05-19T10:28:28.542Z,986.97
2016-05-19T10:29:28.545Z,986.97
2016-05-19T10:30:28.564Z,986.97
2016-05-19T10:31:41.284Z,987.02
2016-05-19T10:32:28.553Z,986.98
2016-05-19T10:33:28.556Z,986.98
2016-05-19T10:34:28.575Z,986.99
2016-05-19T10:35:28.592Z,987.04
2016-05-19T10:36:28.564Z,987.04
2016-05-19T10:37:28.582Z,987.05
2016-05-19T10:38:28.585Z,987.06
2016-05-19T10:39:28.572Z,987.04
2016-05-19T10:40:28.591Z,987.04
2016-05-19T10:41:28.593Z,987.05
2016-05-19T10:42:28.580Z,987.08
2016-05-19T10:43:28.599Z,987.07
2016-05-19T10:44:28.601Z,987.05
2016-05-19T10:45:28.604Z,987.04
2016-05-19T10:46:28.607Z,987.03
2016-05-19T10:47:28.610Z,987.01
2016-05-19T10:48:28.612Z,987.01
2016-05-19T10:49:28.615Z,986.97
2016-05-19T10:50:28.617Z,987.01
2016-05-19T10:51:41.370Z,987.01
2016-05-19T10:52:28.638Z,987
2016-05-19T10:53:28.626Z,986.96
2016-05-19T10:54:28.628Z,986.96
2016-05-19T10:55:28.631Z,986.97
2016-05-19T10:56:28.649Z,986.92
2016-05-19T10:57:28.636Z,986.91
2016-05-19T10:58:28.653Z,986.92
2016-05-19T10:59:28.657Z,986.91
2016-05-19T11:00:28.660Z,986.89
2016-05-19T11:01:41.397Z,986.9
2016-05-19T11:02:28.665Z,986.88
2016-05-19T11:03:28.667Z,986.87
2016-05-19T11:04:28.670Z,986.91
2016-05-19T11:05:28.672Z,986.92
2016-05-19T11:06:28.675Z,986.97
2016-05-19T11:07:28.694Z,986.97
2016-05-19T11:08:28.837Z,986.99
2016-05-19T11:09:28.700Z,987.01
2016-05-19T11:10:28.702Z,987.07
2016-05-19T11:11:41.438Z,987.06
2016-05-19T11:12:28.707Z,986.98
2016-05-19T11:13:28.711Z,986.92
2016-05-19T11:14:28.697Z,986.96
2016-05-19T11:15:28.716Z,986.88
2016-05-19T11:16:28.718Z,986.87
2016-05-19T11:17:28.721Z,986.85
2016-05-19T11:18:29.395Z,986.92
2016-05-19T11:19:28.726Z,986.97
2016-05-19T11:20:28.729Z,987.01
2016-05-19T11:21:28.732Z,987.11
2016-05-19T11:22:28.734Z,987.15
2016-05-19T11:23:28.752Z,987.12
2016-05-19T11:24:28.740Z,987.13
2016-05-19T11:25:28.743Z,987.1
2016-05-19T11:26:28.776Z,987.15
2016-05-19T11:27:28.748Z,987.16
2016-05-19T11:28:29.641Z,987.2
2016-05-19T11:29:28.754Z,987.22
2016-05-19T11:30:28.756Z,987.18
2016-05-19T11:31:41.509Z,987.15
2016-05-19T11:32:28.761Z,987.14
2016-05-19T11:33:28.764Z,987.16
2016-05-19T11:34:28.922Z,987.24
2016-05-19T11:35:28.784Z,987.2
2016-05-19T11:36:28.787Z,987.14
2016-05-19T11:37:28.806Z,987.2
2016-05-19T11:38:29.511Z,987.14
2016-05-19T11:39:28.780Z,987.13
2016-05-19T11:40:28.782Z,987.15
2016-05-19T11:41:28.785Z,987.15
2016-05-19T11:42:28.789Z,987.14
2016-05-19T11:43:28.791Z,987.18
2016-05-19T11:44:28.793Z,987.17
2016-05-19T11:45:41.530Z,987.25
2016-05-19T11:46:28.799Z,987.23
2016-05-19T11:47:28.840Z,987.32
2016-05-19T11:48:28.882Z,987.31
2016-05-19T11:49:28.925Z,987.33
2016-05-19T11:50:28.984Z,987.32
2016-05-19T11:51:29.042Z,987.35
2016-05-19T11:52:29.046Z,987.38
2016-05-19T11:53:29.063Z,987.41
2016-05-19T11:54:29.393Z,987.36
2016-05-19T11:55:29.097Z,987.36
2016-05-19T11:56:29.114Z,987.35
2016-05-19T11:57:29.123Z,987.43
2016-05-19T11:58:29.131Z,987.4
2016-05-19T11:59:29.139Z,987.46
2016-05-19T12:00:29.148Z,987.37
2016-05-19T12:01:29.156Z,987.43
2016-05-19T12:02:29.161Z,987.34
2016-05-19T12:03:29.165Z,987.29
2016-05-19T12:04:29.185Z,987.34
2016-05-19T12:05:29.174Z,987.38
2016-05-19T12:06:29.179Z,987.29
2016-05-19T12:07:29.198Z,987.2
2016-05-19T12:08:41.952Z,987.23
2016-05-19T12:09:29.205Z,987.31
2016-05-19T12:10:29.208Z,987.22
2016-05-19T12:11:29.415Z,987.29
2016-05-19T12:12:29.215Z,987.24
2016-05-19T12:13:29.218Z,987.26
2016-05-19T12:14:29.237Z,987.2
2016-05-19T12:15:29.240Z,987.24
2016-05-19T12:16:29.244Z,987.25
2016-05-19T12:17:48.452Z,987.19
2016-05-19T12:18:29.249Z,987.2
2016-05-19T12:19:29.252Z,987.26
2016-05-19T12:20:29.254Z,987.31
2016-05-19T12:21:29.256Z,987.29
2016-05-19T12:22:29.259Z,987.3
2016-05-19T12:23:29.262Z,987.38
2016-05-19T12:24:29.265Z,987.31
2016-05-19T12:25:29.282Z,987.39
2016-05-19T12:26:29.285Z,987.32
2016-05-19T12:27:29.288Z,987.31
2016-05-19T12:28:29.291Z,987.27
2016-05-19T12:29:29.293Z,987.38
2016-05-19T12:30:29.296Z,987.37
2016-05-19T12:31:29.315Z,987.4